sensor_id;sensor_type;location;lat;lon;timestamp;P1;durP1;ratioP1;P2;durP2;ratioP2
55218;SDS011;65463;43.864;20.136;2024-03-25T00:01:43;29.90;;;10.00;;
55218;SDS011;65463;43.864;20.136;2024-03-25T00:04:10;29.33;;;10.25;;
55218;SDS011;65463;43.864;20.136;2024-03-25T00:06:38;29.02;;;9.68;;
55218;SDS011;65463;43.864;20.136;2024-03-25T00:09:05;28.55;;;10.63;;
55218;SDS011;65463;43.864;20.136;2024-03-25T00:11:32;31.45;;;10.63;;
55218;SDS011;65463;43.864;20.136;2024-03-25T00:13:59;32.45;;;11.60;;
55218;SDS011;65463;43.864;20.136;2024-03-25T00:16:25;34.85;;;12.48;;
55218;SDS011;65463;43.864;20.136;2024-03-25T00:18:51;32.95;;;11.98;;
55218;SDS011;65463;43.864;20.136;2024-03-25T00:21:17;31.55;;;11.05;;
55218;SDS011;65463;43.864;20.136;2024-03-25T00:23:43;36.13;;;11.50;;
55218;SDS011;65463;43.864;20.136;2024-03-25T00:26:10;33.05;;;11.30;;
55218;SDS011;65463;43.864;20.136;2024-03-25T00:28:36;32.90;;;10.85;;
55218;SDS011;65463;43.864;20.136;2024-03-25T00:31:03;31.27;;;11.43;;
55218;SDS011;65463;43.864;20.136;2024-03-25T00:33:30;29.30;;;9.70;;
55218;SDS011;65463;43.864;20.136;2024-03-25T00:35:56;33.45;;;11.05;;
55218;SDS011;65463;43.864;20.136;2024-03-25T00:38:22;32.38;;;11.25;;
55218;SDS011;65463;43.864;20.136;2024-03-25T00:40:51;29.70;;;11.15;;
55218;SDS011;65463;43.864;20.136;2024-03-25T00:43:17;29.85;;;10.73;;
55218;SDS011;65463;43.864;20.136;2024-03-25T00:45:44;31.42;;;10.77;;
55218;SDS011;65463;43.864;20.136;2024-03-25T00:48:11;37.72;;;11.40;;
55218;SDS011;65463;43.864;20.136;2024-03-25T00:50:37;34.40;;;11.32;;
55218;SDS011;65463;43.864;20.136;2024-03-25T00:53:04;31.83;;;11.00;;
55218;SDS011;65463;43.864;20.136;2024-03-25T00:55:30;32.97;;;10.05;;
55218;SDS011;65463;43.864;20.136;2024-03-25T00:58:03;32.17;;;10.68;;
55218;SDS011;65463;43.864;20.136;2024-03-25T01:00:33;32.35;;;10.23;;
55218;SDS011;65463;43.864;20.136;2024-03-25T01:03:00;33.13;;;10.38;;
55218;SDS011;65463;43.864;20.136;2024-03-25T01:05:26;38.28;;;11.45;;
55218;SDS011;65463;43.864;20.136;2024-03-25T01:07:57;36.75;;;11.98;;
55218;SDS011;65463;43.864;20.136;2024-03-25T01:10:24;34.65;;;11.60;;
55218;SDS011;65463;43.864;20.136;2024-03-25T01:12:51;33.28;;;10.95;;
55218;SDS011;65463;43.864;20.136;2024-03-25T01:15:17;38.75;;;11.80;;
55218;SDS011;65463;43.864;20.136;2024-03-25T01:17:43;32.90;;;10.25;;
55218;SDS011;65463;43.864;20.136;2024-03-25T01:20:09;35.92;;;10.68;;
55218;SDS011;65463;43.864;20.136;2024-03-25T01:22:36;34.88;;;11.57;;
55218;SDS011;65463;43.864;20.136;2024-03-25T01:25:02;32.40;;;10.35;;
55218;SDS011;65463;43.864;20.136;2024-03-25T01:27:28;40.28;;;11.48;;
55218;SDS011;65463;43.864;20.136;2024-03-25T01:29:54;30.02;;;10.63;;
55218;SDS011;65463;43.864;20.136;2024-03-25T01:32:20;35.28;;;11.15;;
55218;SDS011;65463;43.864;20.136;2024-03-25T01:34:47;39.20;;;12.38;;
55218;SDS011;65463;43.864;20.136;2024-03-25T01:37:13;33.67;;;10.27;;
55218;SDS011;65463;43.864;20.136;2024-03-25T01:39:39;35.42;;;11.25;;
55218;SDS011;65463;43.864;20.136;2024-03-25T01:42:05;28.48;;;9.82;;
55218;SDS011;65463;43.864;20.136;2024-03-25T01:44:31;27.58;;;9.07;;
55218;SDS011;65463;43.864;20.136;2024-03-25T01:47:00;28.90;;;9.15;;
55218;SDS011;65463;43.864;20.136;2024-03-25T01:49:26;27.67;;;8.60;;
55218;SDS011;65463;43.864;20.136;2024-03-25T01:51:52;30.08;;;9.57;;
55218;SDS011;65463;43.864;20.136;2024-03-25T01:54:18;21.65;;;8.05;;
55218;SDS011;65463;43.864;20.136;2024-03-25T01:56:45;26.95;;;8.32;;
55218;SDS011;65463;43.864;20.136;2024-03-25T01:59:12;26.33;;;8.75;;
55218;SDS011;65463;43.864;20.136;2024-03-25T02:01:38;22.75;;;8.52;;
55218;SDS011;65463;43.864;20.136;2024-03-25T02:04:05;28.30;;;8.98;;
55218;SDS011;65463;43.864;20.136;2024-03-25T02:06:32;32.83;;;9.20;;
55218;SDS011;65463;43.864;20.136;2024-03-25T02:08:59;24.13;;;8.45;;
55218;SDS011;65463;43.864;20.136;2024-03-25T02:11:25;25.90;;;7.93;;
55218;SDS011;65463;43.864;20.136;2024-03-25T02:13:52;23.08;;;8.27;;
55218;SDS011;65463;43.864;20.136;2024-03-25T02:16:18;22.58;;;8.02;;
55218;SDS011;65463;43.864;20.136;2024-03-25T02:18:44;22.55;;;7.88;;
55218;SDS011;65463;43.864;20.136;2024-03-25T02:21:10;28.42;;;8.50;;
55218;SDS011;65463;43.864;20.136;2024-03-25T02:23:37;22.55;;;8.57;;
55218;SDS011;65463;43.864;20.136;2024-03-25T02:26:05;26.80;;;9.48;;
55218;SDS011;65463;43.864;20.136;2024-03-25T02:28:33;24.05;;;8.00;;
55218;SDS011;65463;43.864;20.136;2024-03-25T02:30:59;26.83;;;8.43;;
55218;SDS011;65463;43.864;20.136;2024-03-25T02:33:25;27.02;;;8.70;;
55218;SDS011;65463;43.864;20.136;2024-03-25T02:35:52;25.83;;;7.97;;
55218;SDS011;65463;43.864;20.136;2024-03-25T02:38:18;23.08;;;7.50;;
55218;SDS011;65463;43.864;20.136;2024-03-25T02:40:45;20.15;;;7.30;;
55218;SDS011;65463;43.864;20.136;2024-03-25T02:43:17;23.55;;;7.32;;
55218;SDS011;65463;43.864;20.136;2024-03-25T02:45:46;23.08;;;7.38;;
55218;SDS011;65463;43.864;20.136;2024-03-25T02:48:12;23.30;;;7.20;;
55218;SDS011;65463;43.864;20.136;2024-03-25T02:50:38;21.23;;;6.88;;
55218;SDS011;65463;43.864;20.136;2024-03-25T02:53:05;20.13;;;7.53;;
55218;SDS011;65463;43.864;20.136;2024-03-25T02:55:33;21.50;;;7.55;;
55218;SDS011;65463;43.864;20.136;2024-03-25T02:58:00;26.38;;;8.43;;
55218;SDS011;65463;43.864;20.136;2024-03-25T03:00:26;24.50;;;8.02;;
55218;SDS011;65463;43.864;20.136;2024-03-25T03:02:54;26.52;;;7.65;;
55218;SDS011;65463;43.864;20.136;2024-03-25T03:05:21;23.92;;;8.10;;
55218;SDS011;65463;43.864;20.136;2024-03-25T03:07:47;18.85;;;7.40;;
55218;SDS011;65463;43.864;20.136;2024-03-25T03:10:13;23.52;;;7.70;;
55218;SDS011;65463;43.864;20.136;2024-03-25T03:12:41;20.23;;;6.90;;
55218;SDS011;65463;43.864;20.136;2024-03-25T03:15:07;27.50;;;8.18;;
55218;SDS011;65463;43.864;20.136;2024-03-25T03:17:33;20.55;;;6.95;;
55218;SDS011;65463;43.864;20.136;2024-03-25T03:19:59;21.73;;;7.30;;
55218;SDS011;65463;43.864;20.136;2024-03-25T03:22:25;20.77;;;6.97;;
55218;SDS011;65463;43.864;20.136;2024-03-25T03:24:52;22.05;;;7.68;;
55218;SDS011;65463;43.864;20.136;2024-03-25T03:27:18;24.00;;;7.97;;
55218;SDS011;65463;43.864;20.136;2024-03-25T03:29:44;22.70;;;8.02;;
55218;SDS011;65463;43.864;20.136;2024-03-25T03:32:10;18.13;;;6.72;;
55218;SDS011;65463;43.864;20.136;2024-03-25T03:34:36;22.27;;;7.57;;
55218;SDS011;65463;43.864;20.136;2024-03-25T03:37:02;26.77;;;7.45;;
55218;SDS011;65463;43.864;20.136;2024-03-25T03:39:29;26.20;;;8.07;;
55218;SDS011;65463;43.864;20.136;2024-03-25T03:41:55;27.25;;;8.82;;
55218;SDS011;65463;43.864;20.136;2024-03-25T03:44:21;28.10;;;8.35;;
55218;SDS011;65463;43.864;20.136;2024-03-25T03:46:47;27.73;;;8.50;;
55218;SDS011;65463;43.864;20.136;2024-03-25T03:49:13;24.25;;;8.25;;
55218;SDS011;65463;43.864;20.136;2024-03-25T03:51:40;26.63;;;8.07;;
55218;SDS011;65463;43.864;20.136;2024-03-25T03:54:11;23.15;;;7.40;;
55218;SDS011;65463;43.864;20.136;2024-03-25T03:56:37;26.75;;;8.35;;
55218;SDS011;65463;43.864;20.136;2024-03-25T03:59:08;24.45;;;8.35;;
55218;SDS011;65463;43.864;20.136;2024-03-25T04:01:34;26.38;;;8.18;;
55218;SDS011;65463;43.864;20.136;2024-03-25T04:04:00;30.55;;;8.43;;
55218;SDS011;65463;43.864;20.136;2024-03-25T04:06:27;33.67;;;8.13;;
55218;SDS011;65463;43.864;20.136;2024-03-25T04:08:53;27.33;;;7.80;;
55218;SDS011;65463;43.864;20.136;2024-03-25T04:11:22;30.30;;;8.85;;
55218;SDS011;65463;43.864;20.136;2024-03-25T04:13:48;30.73;;;9.47;;
55218;SDS011;65463;43.864;20.136;2024-03-25T04:16:15;30.85;;;8.77;;
55218;SDS011;65463;43.864;20.136;2024-03-25T04:18:41;34.65;;;10.15;;
55218;SDS011;65463;43.864;20.136;2024-03-25T04:21:11;32.75;;;9.43;;
55218;SDS011;65463;43.864;20.136;2024-03-25T04:23:37;24.00;;;8.30;;
55218;SDS011;65463;43.864;20.136;2024-03-25T04:26:04;31.27;;;8.75;;
55218;SDS011;65463;43.864;20.136;2024-03-25T04:28:32;23.25;;;7.03;;
55218;SDS011;65463;43.864;20.136;2024-03-25T04:30:58;27.60;;;7.93;;
55218;SDS011;65463;43.864;20.136;2024-03-25T04:33:25;23.88;;;7.45;;
55218;SDS011;65463;43.864;20.136;2024-03-25T04:35:51;25.05;;;7.15;;
55218;SDS011;65463;43.864;20.136;2024-03-25T04:38:17;20.38;;;6.70;;
55218;SDS011;65463;43.864;20.136;2024-03-25T04:40:43;25.58;;;6.85;;
55218;SDS011;65463;43.864;20.136;2024-03-25T04:43:09;21.13;;;6.65;;
55218;SDS011;65463;43.864;20.136;2024-03-25T04:45:36;20.92;;;6.88;;
55218;SDS011;65463;43.864;20.136;2024-03-25T04:48:02;22.88;;;7.05;;
55218;SDS011;65463;43.864;20.136;2024-03-25T04:50:28;27.92;;;7.53;;
55218;SDS011;65463;43.864;20.136;2024-03-25T04:52:56;20.42;;;6.90;;
55218;SDS011;65463;43.864;20.136;2024-03-25T04:55:22;23.52;;;7.10;;
55218;SDS011;65463;43.864;20.136;2024-03-25T04:57:50;23.58;;;7.05;;
55218;SDS011;65463;43.864;20.136;2024-03-25T05:00:17;22.02;;;6.78;;
55218;SDS011;65463;43.864;20.136;2024-03-25T05:02:46;25.98;;;7.50;;
55218;SDS011;65463;43.864;20.136;2024-03-25T05:05:12;21.80;;;6.60;;
55218;SDS011;65463;43.864;20.136;2024-03-25T05:07:40;21.33;;;6.97;;
55218;SDS011;65463;43.864;20.136;2024-03-25T05:10:07;22.98;;;6.90;;
55218;SDS011;65463;43.864;20.136;2024-03-25T05:12:33;21.60;;;6.35;;
55218;SDS011;65463;43.864;20.136;2024-03-25T05:14:59;22.75;;;7.30;;
55218;SDS011;65463;43.864;20.136;2024-03-25T05:17:28;19.70;;;6.28;;
55218;SDS011;65463;43.864;20.136;2024-03-25T05:19:54;22.73;;;6.88;;
55218;SDS011;65463;43.864;20.136;2024-03-25T05:22:20;19.88;;;6.15;;
55218;SDS011;65463;43.864;20.136;2024-03-25T05:24:46;22.10;;;6.63;;
55218;SDS011;65463;43.864;20.136;2024-03-25T05:27:15;34.88;;;7.88;;
55218;SDS011;65463;43.864;20.136;2024-03-25T05:29:41;20.63;;;6.88;;
55218;SDS011;65463;43.864;20.136;2024-03-25T05:32:10;20.05;;;6.55;;
55218;SDS011;65463;43.864;20.136;2024-03-25T05:34:37;31.55;;;7.47;;
55218;SDS011;65463;43.864;20.136;2024-03-25T05:37:03;26.90;;;7.50;;
55218;SDS011;65463;43.864;20.136;2024-03-25T05:39:30;24.80;;;8.07;;
55218;SDS011;65463;43.864;20.136;2024-03-25T05:41:56;28.02;;;8.55;;
55218;SDS011;65463;43.864;20.136;2024-03-25T05:44:22;24.35;;;7.50;;
55218;SDS011;65463;43.864;20.136;2024-03-25T05:46:48;22.83;;;7.82;;
55218;SDS011;65463;43.864;20.136;2024-03-25T05:49:14;28.58;;;7.35;;
55218;SDS011;65463;43.864;20.136;2024-03-25T05:51:40;22.02;;;6.00;;
55218;SDS011;65463;43.864;20.136;2024-03-25T05:54:07;30.02;;;8.07;;
55218;SDS011;65463;43.864;20.136;2024-03-25T05:56:33;27.73;;;7.35;;
55218;SDS011;65463;43.864;20.136;2024-03-25T05:58:59;22.48;;;6.97;;
55218;SDS011;65463;43.864;20.136;2024-03-25T06:01:26;28.30;;;7.35;;
55218;SDS011;65463;43.864;20.136;2024-03-25T06:03:52;24.33;;;7.95;;
55218;SDS011;65463;43.864;20.136;2024-03-25T06:06:18;25.90;;;7.45;;
55218;SDS011;65463;43.864;20.136;2024-03-25T06:08:45;24.25;;;7.20;;
55218;SDS011;65463;43.864;20.136;2024-03-25T06:11:11;22.42;;;6.47;;
55218;SDS011;65463;43.864;20.136;2024-03-25T06:13:37;19.08;;;6.55;;
55218;SDS011;65463;43.864;20.136;2024-03-25T06:16:04;19.70;;;6.20;;
55218;SDS011;65463;43.864;20.136;2024-03-25T06:18:30;22.13;;;7.65;;
55218;SDS011;65463;43.864;20.136;2024-03-25T06:20:56;24.85;;;7.20;;
55218;SDS011;65463;43.864;20.136;2024-03-25T06:23:28;23.17;;;7.25;;
55218;SDS011;65463;43.864;20.136;2024-03-25T06:25:55;24.65;;;6.85;;
55218;SDS011;65463;43.864;20.136;2024-03-25T06:28:21;25.98;;;7.57;;
55218;SDS011;65463;43.864;20.136;2024-03-25T06:30:48;21.98;;;7.22;;
55218;SDS011;65463;43.864;20.136;2024-03-25T06:33:35;22.70;;;7.38;;
55218;SDS011;65463;43.864;20.136;2024-03-25T06:36:20;26.23;;;8.15;;
55218;SDS011;65463;43.864;20.136;2024-03-25T06:38:47;29.63;;;8.60;;
55218;SDS011;65463;43.864;20.136;2024-03-25T06:41:13;27.83;;;8.05;;
55218;SDS011;65463;43.864;20.136;2024-03-25T06:43:39;33.10;;;8.55;;
55218;SDS011;65463;43.864;20.136;2024-03-25T06:46:06;27.98;;;8.27;;
55218;SDS011;65463;43.864;20.136;2024-03-25T06:48:33;27.48;;;8.30;;
55218;SDS011;65463;43.864;20.136;2024-03-25T06:51:02;32.60;;;9.32;;
55218;SDS011;65463;43.864;20.136;2024-03-25T06:53:29;33.33;;;9.77;;
55218;SDS011;65463;43.864;20.136;2024-03-25T06:55:56;25.38;;;8.40;;
55218;SDS011;65463;43.864;20.136;2024-03-25T06:58:23;29.02;;;9.10;;
55218;SDS011;65463;43.864;20.136;2024-03-25T07:00:49;25.02;;;7.82;;
55218;SDS011;65463;43.864;20.136;2024-03-25T07:03:19;20.23;;;7.25;;
55218;SDS011;65463;43.864;20.136;2024-03-25T07:05:46;24.35;;;7.45;;
55218;SDS011;65463;43.864;20.136;2024-03-25T07:08:12;26.92;;;6.82;;
55218;SDS011;65463;43.864;20.136;2024-03-25T07:10:41;23.55;;;7.55;;
55218;SDS011;65463;43.864;20.136;2024-03-25T07:13:08;24.05;;;7.70;;
55218;SDS011;65463;43.864;20.136;2024-03-25T07:15:34;25.15;;;7.45;;
55218;SDS011;65463;43.864;20.136;2024-03-25T07:18:00;26.90;;;7.72;;
55218;SDS011;65463;43.864;20.136;2024-03-25T07:20:26;24.77;;;8.02;;
55218;SDS011;65463;43.864;20.136;2024-03-25T07:22:58;22.73;;;7.55;;
55218;SDS011;65463;43.864;20.136;2024-03-25T07:25:24;19.80;;;7.03;;
55218;SDS011;65463;43.864;20.136;2024-03-25T07:27:51;19.50;;;6.28;;
55218;SDS011;65463;43.864;20.136;2024-03-25T07:30:17;20.58;;;6.90;;
55218;SDS011;65463;43.864;20.136;2024-03-25T07:32:44;20.73;;;7.10;;
55218;SDS011;65463;43.864;20.136;2024-03-25T07:35:13;20.63;;;6.18;;
55218;SDS011;65463;43.864;20.136;2024-03-25T07:37:42;20.00;;;6.97;;
55218;SDS011;65463;43.864;20.136;2024-03-25T07:40:08;19.92;;;6.65;;
55218;SDS011;65463;43.864;20.136;2024-03-25T07:42:35;16.90;;;6.05;;
55218;SDS011;65463;43.864;20.136;2024-03-25T07:45:02;13.80;;;5.70;;
55218;SDS011;65463;43.864;20.136;2024-03-25T07:47:33;15.90;;;5.25;;
55218;SDS011;65463;43.864;20.136;2024-03-25T07:49:59;16.10;;;6.00;;
55218;SDS011;65463;43.864;20.136;2024-03-25T07:52:25;12.30;;;5.43;;
55218;SDS011;65463;43.864;20.136;2024-03-25T07:54:52;13.18;;;5.03;;
55218;SDS011;65463;43.864;20.136;2024-03-25T07:57:18;20.98;;;6.90;;
55218;SDS011;65463;43.864;20.136;2024-03-25T07:59:45;15.35;;;5.80;;
55218;SDS011;65463;43.864;20.136;2024-03-25T08:02:11;16.67;;;5.63;;
55218;SDS011;65463;43.864;20.136;2024-03-25T08:04:37;18.05;;;6.00;;
55218;SDS011;65463;43.864;20.136;2024-03-25T08:07:04;20.25;;;7.07;;
55218;SDS011;65463;43.864;20.136;2024-03-25T08:09:30;21.88;;;7.72;;
55218;SDS011;65463;43.864;20.136;2024-03-25T08:11:56;20.85;;;6.72;;
55218;SDS011;65463;43.864;20.136;2024-03-25T08:14:26;18.10;;;6.78;;
55218;SDS011;65463;43.864;20.136;2024-03-25T08:16:53;18.08;;;6.93;;
55218;SDS011;65463;43.864;20.136;2024-03-25T08:19:19;17.23;;;6.68;;
55218;SDS011;65463;43.864;20.136;2024-03-25T08:21:45;21.08;;;6.78;;
55218;SDS011;65463;43.864;20.136;2024-03-25T08:24:13;19.45;;;7.03;;
55218;SDS011;65463;43.864;20.136;2024-03-25T08:26:40;15.90;;;6.20;;
55218;SDS011;65463;43.864;20.136;2024-03-25T08:29:06;18.17;;;6.65;;
55218;SDS011;65463;43.864;20.136;2024-03-25T08:31:33;15.15;;;5.63;;
55218;SDS011;65463;43.864;20.136;2024-03-25T08:33:59;15.02;;;5.50;;
55218;SDS011;65463;43.864;20.136;2024-03-25T08:36:25;16.88;;;5.97;;
55218;SDS011;65463;43.864;20.136;2024-03-25T08:38:53;15.35;;;6.15;;
55218;SDS011;65463;43.864;20.136;2024-03-25T08:41:20;14.63;;;5.57;;
55218;SDS011;65463;43.864;20.136;2024-03-25T08:43:48;12.43;;;5.63;;
55218;SDS011;65463;43.864;20.136;2024-03-25T08:46:15;13.32;;;5.32;;
55218;SDS011;65463;43.864;20.136;2024-03-25T08:48:41;12.52;;;5.32;;
55218;SDS011;65463;43.864;20.136;2024-03-25T08:51:08;14.77;;;5.75;;
55218;SDS011;65463;43.864;20.136;2024-03-25T08:53:34;12.85;;;5.70;;
55218;SDS011;65463;43.864;20.136;2024-03-25T08:56:00;12.15;;;5.95;;
55218;SDS011;65463;43.864;20.136;2024-03-25T08:58:26;16.33;;;6.90;;
55218;SDS011;65463;43.864;20.136;2024-03-25T09:00:52;14.65;;;6.88;;
55218;SDS011;65463;43.864;20.136;2024-03-25T09:03:18;15.77;;;7.07;;
55218;SDS011;65463;43.864;20.136;2024-03-25T09:05:44;13.48;;;6.68;;
55218;SDS011;65463;43.864;20.136;2024-03-25T09:08:10;15.30;;;6.53;;
55218;SDS011;65463;43.864;20.136;2024-03-25T09:10:36;17.35;;;6.40;;
55218;SDS011;65463;43.864;20.136;2024-03-25T09:13:21;11.90;;;5.72;;
55218;SDS011;65463;43.864;20.136;2024-03-25T09:15:48;14.90;;;6.22;;
55218;SDS011;65463;43.864;20.136;2024-03-25T09:18:14;12.43;;;6.30;;
55218;SDS011;65463;43.864;20.136;2024-03-25T09:20:40;15.93;;;7.05;;
55218;SDS011;65463;43.864;20.136;2024-03-25T09:23:06;14.07;;;6.22;;
55218;SDS011;65463;43.864;20.136;2024-03-25T09:25:33;18.77;;;7.20;;
55218;SDS011;65463;43.864;20.136;2024-03-25T09:27:59;13.80;;;6.25;;
55218;SDS011;65463;43.864;20.136;2024-03-25T09:30:26;13.68;;;6.18;;
55218;SDS011;65463;43.864;20.136;2024-03-25T09:32:52;12.73;;;5.70;;
55218;SDS011;65463;43.864;20.136;2024-03-25T09:35:18;10.38;;;4.93;;
55218;SDS011;65463;43.864;20.136;2024-03-25T09:37:45;10.60;;;4.20;;
55218;SDS011;65463;43.864;20.136;2024-03-25T09:40:11;9.65;;;4.40;;
55218;SDS011;65463;43.864;20.136;2024-03-25T09:45:04;8.38;;;4.28;;
55218;SDS011;65463;43.864;20.136;2024-03-25T09:47:35;10.25;;;4.50;;
55218;SDS011;65463;43.864;20.136;2024-03-25T09:50:04;8.18;;;3.75;;
55218;SDS011;65463;43.864;20.136;2024-03-25T09:52:33;8.57;;;3.30;;
55218;SDS011;65463;43.864;20.136;2024-03-25T09:54:59;5.68;;;3.15;;
55218;SDS011;65463;43.864;20.136;2024-03-25T09:57:26;5.35;;;2.50;;
55218;SDS011;65463;43.864;20.136;2024-03-25T09:59:52;9.05;;;2.88;;
55218;SDS011;65463;43.864;20.136;2024-03-25T10:02:18;5.53;;;2.80;;
55218;SDS011;65463;43.864;20.136;2024-03-25T10:04:51;6.60;;;2.80;;
55218;SDS011;65463;43.864;20.136;2024-03-25T10:07:23;4.57;;;2.38;;
55218;SDS011;65463;43.864;20.136;2024-03-25T10:09:50;4.60;;;2.20;;
55218;SDS011;65463;43.864;20.136;2024-03-25T10:12:17;5.65;;;2.80;;
55218;SDS011;65463;43.864;20.136;2024-03-25T10:14:43;6.80;;;2.85;;
55218;SDS011;65463;43.864;20.136;2024-03-25T10:17:10;5.88;;;2.80;;
55218;SDS011;65463;43.864;20.136;2024-03-25T10:19:38;4.88;;;2.47;;
55218;SDS011;65463;43.864;20.136;2024-03-25T10:22:05;4.60;;;2.55;;
55218;SDS011;65463;43.864;20.136;2024-03-25T10:24:41;5.68;;;2.50;;
55218;SDS011;65463;43.864;20.136;2024-03-25T10:27:17;5.03;;;2.33;;
55218;SDS011;65463;43.864;20.136;2024-03-25T10:29:45;6.72;;;2.95;;
55218;SDS011;65463;43.864;20.136;2024-03-25T10:32:12;5.03;;;2.63;;
55218;SDS011;65463;43.864;20.136;2024-03-25T10:34:38;4.43;;;2.25;;
55218;SDS011;65463;43.864;20.136;2024-03-25T10:37:05;4.95;;;2.88;;
55218;SDS011;65463;43.864;20.136;2024-03-25T10:39:33;4.53;;;2.50;;
55218;SDS011;65463;43.864;20.136;2024-03-25T10:42:00;4.90;;;2.50;;
55218;SDS011;65463;43.864;20.136;2024-03-25T10:44:29;4.60;;;2.42;;
55218;SDS011;65463;43.864;20.136;2024-03-25T10:47:02;4.43;;;2.20;;
55218;SDS011;65463;43.864;20.136;2024-03-25T10:49:43;4.45;;;2.40;;
55218;SDS011;65463;43.864;20.136;2024-03-25T10:52:12;5.10;;;2.80;;
55218;SDS011;65463;43.864;20.136;2024-03-25T10:54:39;5.68;;;2.60;;
55218;SDS011;65463;43.864;20.136;2024-03-25T10:57:05;4.28;;;2.35;;
55218;SDS011;65463;43.864;20.136;2024-03-25T10:59:31;5.05;;;2.38;;
55218;SDS011;65463;43.864;20.136;2024-03-25T11:01:59;3.80;;;1.98;;
55218;SDS011;65463;43.864;20.136;2024-03-25T11:04:25;4.65;;;2.13;;
55218;SDS011;65463;43.864;20.136;2024-03-25T11:06:52;4.18;;;2.00;;
55218;SDS011;65463;43.864;20.136;2024-03-25T11:09:24;6.22;;;2.00;;
55218;SDS011;65463;43.864;20.136;2024-03-25T11:11:53;3.92;;;1.80;;
55218;SDS011;65463;43.864;20.136;2024-03-25T11:14:19;4.60;;;2.00;;
55218;SDS011;65463;43.864;20.136;2024-03-25T11:16:52;3.38;;;1.63;;
55218;SDS011;65463;43.864;20.136;2024-03-25T11:19:25;5.47;;;1.73;;
55218;SDS011;65463;43.864;20.136;2024-03-25T11:22:06;3.47;;;1.70;;
55218;SDS011;65463;43.864;20.136;2024-03-25T11:27:07;5.90;;;1.60;;
55218;SDS011;65463;43.864;20.136;2024-03-25T11:29:33;3.60;;;1.58;;
55218;SDS011;65463;43.864;20.136;2024-03-25T11:32:03;3.42;;;1.70;;
55218;SDS011;65463;43.864;20.136;2024-03-25T11:34:29;2.85;;;1.60;;
55218;SDS011;65463;43.864;20.136;2024-03-25T11:36:56;3.38;;;1.55;;
55218;SDS011;65463;43.864;20.136;2024-03-25T11:39:23;3.35;;;1.60;;
55218;SDS011;65463;43.864;20.136;2024-03-25T11:41:51;3.80;;;1.40;;
55218;SDS011;65463;43.864;20.136;2024-03-25T11:44:18;3.25;;;1.70;;
55218;SDS011;65463;43.864;20.136;2024-03-25T11:46:44;4.03;;;1.50;;
55218;SDS011;65463;43.864;20.136;2024-03-25T11:49:14;3.13;;;1.70;;
55218;SDS011;65463;43.864;20.136;2024-03-25T11:51:43;3.78;;;1.50;;
55218;SDS011;65463;43.864;20.136;2024-03-25T11:54:11;3.10;;;1.30;;
55218;SDS011;65463;43.864;20.136;2024-03-25T11:56:38;2.50;;;1.40;;
55218;SDS011;65463;43.864;20.136;2024-03-25T11:59:04;2.05;;;1.15;;
55218;SDS011;65463;43.864;20.136;2024-03-25T12:01:33;1.80;;;1.13;;
55218;SDS011;65463;43.864;20.136;2024-03-25T12:04:11;1.88;;;1.25;;
55218;SDS011;65463;43.864;20.136;2024-03-25T12:06:37;2.55;;;1.25;;
55218;SDS011;65463;43.864;20.136;2024-03-25T12:09:04;2.20;;;1.02;;
55218;SDS011;65463;43.864;20.136;2024-03-25T12:12:02;1.88;;;1.00;;
55218;SDS011;65463;43.864;20.136;2024-03-25T12:14:29;1.90;;;1.00;;
55218;SDS011;65463;43.864;20.136;2024-03-25T12:16:55;2.30;;;1.10;;
55218;SDS011;65463;43.864;20.136;2024-03-25T12:19:24;1.92;;;1.10;;
55218;SDS011;65463;43.864;20.136;2024-03-25T12:22:00;2.67;;;1.27;;
55218;SDS011;65463;43.864;20.136;2024-03-25T12:24:28;2.33;;;1.13;;
55218;SDS011;65463;43.864;20.136;2024-03-25T12:26:54;1.88;;;0.95;;
55218;SDS011;65463;43.864;20.136;2024-03-25T12:29:21;1.92;;;1.10;;
55218;SDS011;65463;43.864;20.136;2024-03-25T12:31:53;2.05;;;0.90;;
55218;SDS011;65463;43.864;20.136;2024-03-25T12:34:19;2.00;;;1.10;;
55218;SDS011;65463;43.864;20.136;2024-03-25T12:36:50;1.50;;;0.88;;
55218;SDS011;65463;43.864;20.136;2024-03-25T12:39:17;3.17;;;0.80;;
55218;SDS011;65463;43.864;20.136;2024-03-25T12:41:46;1.83;;;0.80;;
55218;SDS011;65463;43.864;20.136;2024-03-25T12:44:12;1.67;;;0.90;;
55218;SDS011;65463;43.864;20.136;2024-03-25T12:46:38;1.92;;;1.02;;
55218;SDS011;65463;43.864;20.136;2024-03-25T12:49:05;1.52;;;0.90;;
55218;SDS011;65463;43.864;20.136;2024-03-25T12:51:31;2.33;;;1.00;;
55218;SDS011;65463;43.864;20.136;2024-03-25T12:53:57;3.97;;;1.20;;
55218;SDS011;65463;43.864;20.136;2024-03-25T12:56:24;5.78;;;3.10;;
55218;SDS011;65463;43.864;20.136;2024-03-25T12:58:50;2.88;;;1.50;;
55218;SDS011;65463;43.864;20.136;2024-03-25T13:01:17;1.55;;;1.00;;
55218;SDS011;65463;43.864;20.136;2024-03-25T13:03:43;2.00;;;1.08;;
55218;SDS011;65463;43.864;20.136;2024-03-25T13:06:09;2.65;;;1.42;;
55218;SDS011;65463;43.864;20.136;2024-03-25T13:08:35;1.95;;;1.05;;
55218;SDS011;65463;43.864;20.136;2024-03-25T13:11:06;2.88;;;1.45;;
55218;SDS011;65463;43.864;20.136;2024-03-25T13:13:33;3.40;;;1.70;;
55218;SDS011;65463;43.864;20.136;2024-03-25T13:15:59;7.00;;;2.75;;
55218;SDS011;65463;43.864;20.136;2024-03-25T13:18:25;2.83;;;1.40;;
55218;SDS011;65463;43.864;20.136;2024-03-25T13:20:51;6.25;;;2.40;;
55218;SDS011;65463;43.864;20.136;2024-03-25T13:23:18;4.00;;;1.98;;
55218;SDS011;65463;43.864;20.136;2024-03-25T13:25:44;7.43;;;2.25;;
55218;SDS011;65463;43.864;20.136;2024-03-25T13:28:10;5.43;;;2.45;;
55218;SDS011;65463;43.864;20.136;2024-03-25T13:30:37;3.30;;;1.20;;
55218;SDS011;65463;43.864;20.136;2024-03-25T13:33:03;5.00;;;1.90;;
55218;SDS011;65463;43.864;20.136;2024-03-25T13:35:29;16.45;;;2.70;;
55218;SDS011;65463;43.864;20.136;2024-03-25T13:37:55;22.77;;;3.78;;
55218;SDS011;65463;43.864;20.136;2024-03-25T13:40:22;3.70;;;1.73;;
55218;SDS011;65463;43.864;20.136;2024-03-25T13:42:48;7.40;;;1.50;;
55218;SDS011;65463;43.864;20.136;2024-03-25T13:45:14;1.67;;;1.00;;
55218;SDS011;65463;43.864;20.136;2024-03-25T13:47:41;1.63;;;0.85;;
55218;SDS011;65463;43.864;20.136;2024-03-25T13:50:08;3.92;;;1.30;;
55218;SDS011;65463;43.864;20.136;2024-03-25T13:52:34;5.05;;;1.42;;
55218;SDS011;65463;43.864;20.136;2024-03-25T13:55:01;2.88;;;1.10;;
55218;SDS011;65463;43.864;20.136;2024-03-25T13:57:30;3.58;;;1.17;;
55218;SDS011;65463;43.864;20.136;2024-03-25T13:59:56;2.03;;;1.00;;
55218;SDS011;65463;43.864;20.136;2024-03-25T14:02:23;2.38;;;0.90;;
55218;SDS011;65463;43.864;20.136;2024-03-25T14:04:49;1.80;;;0.80;;
55218;SDS011;65463;43.864;20.136;2024-03-25T14:07:15;1.65;;;0.90;;
55218;SDS011;65463;43.864;20.136;2024-03-25T14:09:41;3.72;;;0.90;;
55218;SDS011;65463;43.864;20.136;2024-03-25T14:12:07;1.50;;;0.93;;
55218;SDS011;65463;43.864;20.136;2024-03-25T14:14:33;1.80;;;0.68;;
55218;SDS011;65463;43.864;20.136;2024-03-25T14:16:59;2.65;;;0.90;;
55218;SDS011;65463;43.864;20.136;2024-03-25T14:19:26;1.38;;;0.90;;
55218;SDS011;65463;43.864;20.136;2024-03-25T14:21:52;3.20;;;1.65;;
55218;SDS011;65463;43.864;20.136;2024-03-25T14:24:18;2.30;;;0.95;;
55218;SDS011;65463;43.864;20.136;2024-03-25T14:26:44;1.60;;;0.90;;
55218;SDS011;65463;43.864;20.136;2024-03-25T14:29:10;2.45;;;0.90;;